Latest Weather Observations for Katanning RS

IDW60801

Issued at 8:02 am WST Sunday 1 February 2015 (issued every 30 minutes, with the page automatically refreshed every 10 minutes)

About weather observations | Map of weather stations | Latest weather observations for WA | Other Formats
Station Details ID: 010916 Name: KATANNING Lat: -33.69 Lon: 117.61 Height: 320.0 m
Data from the previous 72 hours. | See also: Recent months at Katanning RS
Date/Time
WST
Temp
°C
App
Temp
°C
Dew
Point
Rel
Hum
%
Delta-T
°C
Wind Press
QNH
hPa
Press
MSL
hPa
Rain
since 9 am
mm
Dir
 
Spd
km/h
Gust
km/h
Spd
kts
Gust
kts
01/08:00am 18.4 13.3 9.2 55 4.9 E 26 39 14 21 1020.4 1019.1 0.0
01/07:30am 17.4 11.6 9.3 59 4.3 E 30 41 16 22 1020.2 1018.9 0.0
01/07:00am 16.8 11.7 9.2 61 4.0 E 26 43 14 23 1020.2 1018.9 0.0
01/06:30am 16.3 12.6 9.3 63 3.7 E 19 28 10 15 1020.2 1018.9 0.0
01/06:00am 15.6 11.7 9.5 67 3.2 E 20 30 11 16 1020.1 1018.8 0.0
01/05:30am 15.4 11.5 9.5 68 3.1 ENE 20 32 11 17 1019.7 1018.3 0.0
01/05:00am 15.7 11.1 9.8 68 3.1 E 24 33 13 18 1019.3 1017.9 0.0
01/04:30am 16.1 10.6 10.4 69 3.1 ENE 30 43 16 23 1018.8 1017.5 0.0
01/04:00am 16.9 12.7 11.2 69 3.1 ENE 24 35 13 19 1018.6 1017.3 0.0
01/03:30am 16.8 12.3 11.3 70 3.0 E 26 37 14 20 1018.3 1017.0 0.0
01/03:11am 16.8 12.0 11.5 71 2.9 E 28 48 15 26 1018.2 1016.9 0.0
01/03:00am 16.6 13.4 12.0 74 2.5 E 20 28 11 15 1018.3 1017.0 0.0
01/02:30am 16.6 14.4 12.0 74 2.6 E 15 22 8 12 1018.4 1017.1 0.0
01/02:00am 16.2 13.0 11.4 73 2.6 ESE 19 33 10 18 1018.4 1017.1 0.0
01/01:30am 16.3 12.9 11.2 72 2.8 ESE 20 32 11 17 1018.5 1017.2 0.0
01/01:00am 16.2 12.8 11.2 72 2.7 ESE 20 33 11 18 1018.8 1017.5 0.0
01/12:30am 16.4 12.3 11.3 72 2.8 ESE 24 33 13 18 1019.1 1017.7 0.0
01/12:00am 16.5 12.8 11.4 72 2.8 ESE 22 33 12 18 1019.4 1018.0 0.0
 
Date/Time
WST
Temp
°C
App
Temp
°C
Dew
Point
Rel
Hum
%
Delta-T
°C
Wind Press
QNH
hPa
Press
MSL
hPa
Rain
since 9 am
mm
Dir
 
Spd
km/h
Gust
km/h
Spd
kts
Gust
kts
31/11:30pm 16.6 12.8 11.1 70 3.0 ESE 22 35 12 19 1019.6 1018.2 0.0
31/11:00pm 16.8 12.5 10.6 67 3.3 ESE 24 35 13 19 1019.6 1018.2 0.0
31/10:30pm 17.1 12.3 10.2 64 3.7 ESE 26 43 14 23 1019.7 1018.3 0.0
31/10:00pm 17.3 12.5 10.4 64 3.7 ESE 26 37 14 20 1019.8 1018.4 0.0
31/09:30pm 17.3 13.7 10.7 65 3.6 ESE 20 30 11 16 1019.9 1018.6 0.0
31/09:00pm 17.7 13.0 10.8 64 3.8 ESE 26 39 14 21 1019.7 1018.3 0.0
31/08:30pm 18.7 13.4 10.0 57 4.7 ESE 28 39 15 21 1019.4 1018.0 0.0
31/08:00pm 19.6 14.5 9.2 51 5.6 ESE 26 37 14 20 1019.2 1017.8 0.0
31/07:30pm 20.6 16.1 8.6 46 6.4 ESE 22 37 12 20 1018.8 1017.5 0.0
31/07:00pm 21.8 16.7 7.6 40 7.5 ESE 24 39 13 21 1018.6 1017.3 0.0
31/06:30pm 22.8 17.2 7.0 36 8.3 ESE 26 35 14 19 1018.4 1017.1 0.0
31/06:00pm 23.9 17.6 5.8 31 9.3 ESE 28 39 15 21 1018.1 1016.8 0.0
31/05:30pm 24.3 18.5 6.1 31 9.5 E 26 43 14 23 1017.7 1016.4 0.0
31/05:00pm 25.1 18.2 6.3 30 9.8 E 32 46 17 25 1017.9 1016.6 0.0
31/04:30pm 26.1 19.6 6.7 29 10.3 ESE 30 43 16 23 1018.0 1016.7 0.0
31/04:00pm 26.1 19.1 6.7 29 10.3 ESE 33 48 18 26 1018.0 1016.7 0.0
31/03:30pm 27.0 20.6 8.4 31 10.2 E 32 52 17 28 1018.1 1016.8 0.0
31/03:27pm 26.7 20.0 8.2 31 10.1 E 33 52 18 28 1018.1 1016.8 0.0
31/03:00pm 26.4 19.3 7.9 31 10.0 E 35 50 19 27 1018.2 1016.9 0.0
31/02:51pm 27.0 19.9 8.0 30 10.4 E 35 50 19 27 1018.1 1016.8 0.0
31/02:33pm 27.3 20.9 8.7 31 10.3 ESE 32 52 17 28 1018.2 1016.9 0.0
31/02:30pm 26.4 19.6 7.9 31 10.1 E 33 52 18 28 1018.2 1016.9 0.0
31/02:00pm 27.1 20.8 9.0 32 10.0 E 32 46 17 25 1018.1 1016.8 0.0
31/01:30pm 26.2 20.6 10.0 36 9.1 E 30 50 16 27 1018.4 1017.1 0.0
31/01:22pm 27.2 21.4 10.8 36 9.4 E 32 52 17 28 1018.5 1017.2 0.0
31/01:00pm 25.7 19.7 10.7 39 8.5 ESE 33 48 18 26 1018.7 1017.4 0.0
31/12:30pm 24.7 18.7 10.9 42 7.8 ESE 33 46 18 25 1019.3 1017.9 0.0
31/12:00pm 24.1 18.2 11.1 44 7.4 E 33 46 18 25 1019.4 1018.0 0.0
31/11:30am 23.9 18.3 11.6 46 7.0 E 32 44 17 24 1019.6 1018.2 0.0
31/11:00am 24.1 19.0 11.8 46 7.0 E 30 39 16 21 1019.7 1018.3 0.0
31/10:30am 23.0 18.9 11.4 48 6.6 E 24 39 13 21 1020.0 1018.7 0.0
31/10:00am 22.1 16.8 11.2 50 6.1 E 30 44 16 24 1020.2 1018.9 0.0
31/09:30am 21.7 16.4 11.4 52 5.8 E 30 46 16 25 1020.1 1018.8 0.0
31/09:00am 20.3 15.1 11.5 57 4.9 E 30 43 16 23 1020.2 1018.9 0.0
31/08:30am 19.4 14.1 11.4 60 4.5 E 30 39 16 21 1020.3 1019.0 0.0
31/08:00am 18.7 13.9 11.5 63 4.0 E 28 37 15 20 1020.3 1019.0 0.0
31/07:30am 18.3 13.9 11.8 66 3.6 E 26 37 14 20 1020.4 1019.1 0.0
31/07:00am 17.0 12.6 11.7 71 2.9 E 26 39 14 21 1020.2 1018.9 0.0
31/06:30am 16.2 13.1 11.6 74 2.5 E 19 26 10 14 1019.9 1018.6 0.0
31/06:00am 15.4 13.0 11.4 77 2.2 E 15 20 8 11 1019.8 1018.4 0.0
31/05:30am 15.2 12.4 11.4 78 2.1 E 17 28 9 15 1019.5 1018.1 0.0
31/05:00am 15.4 13.1 11.6 78 2.1 E 15 22 8 12 1019.3 1017.9 0.0
31/04:30am 15.5 12.4 11.5 77 2.2 E 19 28 10 15 1019.1 1017.7 0.0
31/04:00am 15.7 12.6 11.7 77 2.2 E 19 26 10 14 1019.0 1017.6 0.0
31/03:30am 15.8 12.7 11.6 76 2.3 E 19 30 10 16 1019.1 1017.7 0.0
31/03:00am 16.1 13.7 11.5 74 2.5 ESE 15 24 8 13 1019.0 1017.6 0.0
31/02:30am 16.5 13.3 11.2 71 2.9 E 19 24 10 13 1018.8 1017.5 0.0
31/02:00am 16.2 12.9 10.9 71 2.9 ESE 19 28 10 15 1018.8 1017.5 0.0
31/01:30am 16.3 13.0 11.0 71 2.9 E 19 28 10 15 1018.8 1017.5 0.0
31/01:00am 16.3 13.0 11.0 71 2.9 E 19 30 10 16 1018.8 1017.5 0.0
31/12:30am 16.4 12.6 11.1 71 2.9 E 22 35 12 19 1019.1 1017.7 0.0
31/12:00am 16.3 13.0 11.0 71 2.9 ESE 19 28 10 15 1019.4 1018.0 0.0
 
Date/Time
WST
Temp
°C
App
Temp
°C
Dew
Point
Rel
Hum
%
Delta-T
°C
Wind Press
QNH
hPa
Press
MSL
hPa
Rain
since 9 am
mm
Dir
 
Spd
km/h
Gust
km/h
Spd
kts
Gust
kts
30/11:30pm 16.5 13.0 11.0 70 3.0 ESE 20 33 11 18 1019.6 1018.2 0.0
30/11:00pm 16.7 12.9 11.2 70 3.0 ESE 22 35 12 19 1019.6 1018.2 0.0
30/10:30pm 16.9 13.1 11.2 69 3.1 ESE 22 35 12 19 1019.6 1018.2 0.0
30/10:00pm 17.1 13.4 11.4 69 3.1 ESE 22 32 12 17 1019.5 1018.1 0.0
30/09:30pm 17.5 13.8 11.5 68 3.3 ESE 22 33 12 18 1019.3 1017.9 0.0
30/09:00pm 17.9 13.9 11.7 67 3.4 ESE 24 39 13 21 1019.3 1017.9 0.0
30/08:30pm 19.0 14.6 11.6 62 4.1 ESE 26 37 14 20 1018.7 1017.4 0.0
30/08:00pm 20.0 15.4 11.2 57 4.9 ESE 26 46 14 25 1018.4 1017.1 0.0
30/07:30pm 21.0 16.0 11.1 53 5.5 ESE 28 41 15 22 1017.8 1016.5 0.0
30/07:00pm 22.3 16.8 10.5 47 6.6 ESE 30 41 16 22 1017.3 1016.0 0.0
30/06:30pm 23.6 17.6 8.8 39 8.1 ESE 30 39 16 21 1016.9 1015.5 0.0
30/06:00pm 25.1 19.7 8.1 34 9.2 ESE 26 41 14 22 1016.5 1015.1 0.0
30/05:30pm 26.7 20.8 7.7 30 10.3 SE 28 43 15 23 1016.1 1014.7 0.0
30/05:00pm 27.7 21.4 7.5 28 11.0 ESE 30 41 16 22 1015.9 1014.5 0.0
30/04:30pm 29.1 22.9 7.7 26 11.8 ESE 30 44 16 24 1015.8 1014.4 0.0
30/04:00pm 29.1 22.5 7.7 26 11.8 SE 32 50 17 27 1015.5 1014.2 0.0
30/03:56pm 29.4 23.1 7.3 25 12.1 SE 30 50 16 27 1015.7 1014.3 0.0
30/03:30pm 30.7 24.6 6.6 22 13.1 ESE 28 41 15 22 1015.7 1014.3 0.0
30/03:00pm 32.4 26.7 6.6 20 14.2 E 26 39 14 21 1015.5 1014.2 0.0
30/02:30pm 31.0 24.6 6.8 22 13.2 SE 30 44 16 24 1015.5 1014.2 0.0
30/02:14pm 30.9 24.4 6.7 22 13.2 ESE 30 50 16 27 1015.7 1014.3 0.0
30/02:00pm 31.3 25.2 6.4 21 13.5 SE 28 35 15 19 1015.8 1014.4 0.0
30/01:30pm 30.9 25.2 6.7 22 13.2 SE 26 39 14 21 1015.7 1014.3 0.0
30/01:00pm 30.7 25.0 6.6 22 13.1 ESE 26 41 14 22 1015.9 1014.5 0.0
30/12:30pm 31.1 24.2 4.8 19 13.9 ESE 30 43 16 23 1016.0 1014.6 0.0
30/12:00pm 30.9 24.9 5.3 20 13.6 ESE 26 43 14 23 1016.4 1015.0 0.0
30/11:48am 30.9 24.5 5.3 20 13.6 ESE 28 46 15 25 1016.4 1015.0 0.0
30/11:30am 30.1 24.4 6.7 23 12.7 ESE 26 37 14 20 1016.5 1015.1 0.0
30/11:00am 28.4 23.0 8.1 28 11.2 ESE 26 39 14 21 1016.9 1015.5 0.0
30/10:30am 27.7 22.5 9.0 31 10.4 ESE 26 37 14 20 1017.2 1015.9 0.0
30/10:00am 26.9 22.4 10.2 35 9.5 ESE 24 35 13 19 1017.3 1016.0 0.0
30/09:30am 25.6 21.9 11.4 41 8.2 ESE 22 32 12 17 1017.3 1016.0 0.0
30/09:00am 24.1 20.4 12.7 49 6.6 ESE 24 33 13 18 1017.4 1016.1 0.0
30/08:30am 22.5 18.8 13.8 58 5.1 ESE 26 37 14 20 1017.4 1016.1 0.0
30/08:00am 20.9 18.8 14.8 68 3.6 SE 19 28 10 15 1017.3 1016.0 0.0
30/07:30am 19.2 17.1 15.1 77 2.4 SE 20 28 11 15 1017.3 1016.0 0.0
30/07:00am 17.9 16.4 15.2 84 1.6 SE 17 20 9 11 1017.0 1015.6 0.0
30/06:30am 17.5 16.3 15.0 85 1.5 SE 15 19 8 10 1016.6 1015.2 0.0
30/06:00am 17.1 16.5 14.6 85 1.5 SSE 11 15 6 8 1016.2 1014.8 0.0
30/05:30am 17.1 16.4 14.4 84 1.6 SSE 11 13 6 7 1015.7 1014.3 0.0
30/05:00am 17.6 16.6 14.5 82 1.8 SE 13 19 7 10 1015.4 1014.1 0.0
30/04:30am 18.1 17.1 14.6 80 2.1 SE 13 20 7 11 1015.1 1013.8 0.0
30/04:00am 18.3 17.0 14.8 80 2.1 SE 15 20 8 11 1014.9 1013.6 0.0
30/03:30am 18.6 17.2 14.5 77 2.4 SE 15 22 8 12 1014.7 1013.4 0.0
30/03:00am 18.5 17.5 14.6 78 2.3 ESE 13 19 7 10 1014.5 1013.2 0.0
30/02:30am 18.7 17.7 14.6 77 2.4 SE 13 20 7 11 1014.5 1013.2 0.0
30/02:00am 18.7 16.9 14.4 76 2.5 SE 17 28 9 15 1014.7 1013.4 0.0
30/01:30am 18.7 16.9 14.4 76 2.5 SSE 17 22 9 12 1014.7 1013.4 0.0
30/01:00am 19.1 17.3 14.4 74 2.8 SSE 17 22 9 12 1014.9 1013.6 0.0
30/12:30am 19.3 18.1 14.1 72 3.0 SSE 13 19 7 10 1014.7 1013.4 0.0
30/12:00am 19.7 17.2 14.1 70 3.3 SSE 20 26 11 14 1014.4 1013.1 0.0
 
Date/Time
WST
Temp
°C
App
Temp
°C
Dew
Point
Rel
Hum
%
Delta-T
°C
Wind Press
QNH
hPa
Press
MSL
hPa
Rain
since 9 am
mm
Dir
 
Spd
km/h
Gust
km/h
Spd
kts
Gust
kts
29/11:30pm 20.2 17.5 14.6 70 3.3 SSE 22 30 12 16 1014.4 1013.1 0.0
29/11:00pm 21.6 18.9 10.4 49 6.2 S 15 20 8 11 1014.6 1013.3 0.0
29/10:30pm 22.9 19.0 7.1 36 8.3 SSE 17 20 9 11 1014.5 1013.2 0.0
29/10:00pm 23.9 21.0 6.7 33 9.0 S 11 15 6 8 1014.5 1013.2 0.0
29/09:30pm 24.6 21.5 7.3 33 9.2 SW 13 19 7 10 1014.7 1013.4 0.0
29/09:00pm 25.6 21.5 6.3 29 10.2 SSE 17 22 9 12 1013.9 1012.5 0.0
29/08:30pm 26.6 22.5 6.1 27 10.8 SSE 17 22 9 12 1013.6 1012.2 0.0
29/08:00pm 27.7 23.0 5.9 25 11.5 SE 20 28 11 15 1012.8 1011.4 0.0
29/07:30pm 28.3 23.7 5.8 24 11.9 SE 19 28 10 15 1012.1 1010.8 0.0
29/07:00pm 29.2 24.2 6.6 24 12.2 SE 22 35 12 19 1011.6 1010.3 0.0
29/06:30pm 30.6 24.1 6.5 22 13.1 ESE 30 41 16 22 1010.6 1009.2 0.0
29/06:12pm 31.6 25.5 6.6 21 13.7 SE 28 50 15 27 1010.1 1008.7 0.0
29/06:00pm 33.4 28.6 0.1 12 16.6 E 15 20 8 11 1009.9 1008.5 0.0
29/05:30pm 34.6 30.7 1.1 12 17.0 ENE 11 19 6 10 1009.5 1008.1 0.0
29/05:00pm 34.3 31.1 0.8 12 17.0 NE 7 20 4 11 1009.3 1007.9 0.0
29/04:30pm 34.9 30.8 0.1 11 17.4 ESE 11 22 6 12 1009.3 1007.9 0.0
29/04:00pm 35.2 31.9 0.3 11 17.6 ENE 7 17 4 9 1009.7 1008.3 0.0
29/03:30pm 34.8 29.2 0.0 11 17.4 NE 19 28 10 15 1009.9 1008.5 0.0
29/03:00pm 35.5 32.5 0.6 11 17.7 NNE 6 20 3 11 1010.0 1008.6 0.0
29/02:30pm 34.7 31.6 1.1 12 17.1 N 7 17 4 9 1010.1 1008.7 0.0
29/02:00pm 35.9 32.9 0.9 11 17.9 NE 6 19 3 10 1010.3 1008.9 0.0
29/01:30pm 35.3 32.2 1.6 12 17.3 NNW 7 13 4 7 1010.5 1009.1 0.0
29/01:00pm 34.7 31.4 2.3 13 16.8 NNE 9 20 5 11 1010.8 1009.4 0.0
29/12:30pm 34.5 32.1 2.1 13 16.7 NNW 4 17 2 9 1011.0 1009.6 0.0
29/12:00pm 33.7 30.8 1.5 13 16.4 ENE 6 15 3 8 1011.4 1010.0 0.0
29/11:30am 33.3 30.3 2.2 14 16.0 NNW 7 13 4 7 1011.7 1010.4 0.0
29/11:00am 32.7 28.9 1.7 14 15.7 NNW 11 20 6 11 1012.0 1010.7 0.0
29/10:30am 32.0 28.1 1.2 14 15.4 NW 11 19 6 10 1012.1 1010.8 0.0
29/10:00am 31.2 27.7 1.5 15 14.9 N 9 20 5 11 1012.5 1011.1 0.0
29/09:30am 30.3 25.7 1.7 16 14.3 N 15 20 8 11 1012.6 1011.2 0.0
29/09:00am 28.7 24.3 2.8 19 13.1 N 15 20 8 11 1012.0 1010.7 0.8
29/08:30am 28.2 24.4 3.8 21 12.5 NNE 13 22 7 12 1011.8 1010.5 0.8

Other Formats:

Comma delimited format used in spreadsheet applications
http://www.bom.gov.au/fwo/IDW60801/IDW60801.94641.axf

JavaScript Object Notation format (JSON) in row-major order
http://www.bom.gov.au/fwo/IDW60801/IDW60801.94641.json